createdAt,value
2022-11-03T00:01:37.816Z,34.70
2022-11-03T00:04:07.444Z,35.30
2022-11-03T00:06:36.226Z,37.73
2022-11-03T00:09:07.222Z,36.10
2022-11-03T00:11:38.106Z,35.90
2022-11-03T00:14:07.553Z,36.90
2022-11-03T00:16:36.146Z,36.00
2022-11-03T00:19:04.765Z,35.80
2022-11-03T00:21:33.453Z,35.37
2022-11-03T00:24:02.650Z,36.07
2022-11-03T00:26:32.419Z,36.33
2022-11-03T00:29:07.104Z,34.27
2022-11-03T00:31:37.318Z,36.07
2022-11-03T00:34:07.187Z,36.73
2022-11-03T00:36:37.942Z,34.87
2022-11-03T00:39:07.027Z,35.93
2022-11-03T00:41:35.400Z,35.93
2022-11-03T00:44:05.440Z,35.70
2022-11-03T00:46:35.645Z,35.63
2022-11-03T00:49:05.007Z,35.90
2022-11-03T00:51:34.545Z,35.50
2022-11-03T00:54:04.742Z,36.77
2022-11-03T00:56:34.356Z,37.70
2022-11-03T00:59:06.063Z,36.00
2022-11-03T01:01:40.549Z,35.77
2022-11-03T01:04:41.590Z,39.03
2022-11-03T01:07:10.011Z,36.87
2022-11-03T01:09:39.962Z,37.10
2022-11-03T01:12:11.127Z,37.80
2022-11-03T01:14:43.370Z,36.80
2022-11-03T01:17:13.664Z,38.77
2022-11-03T01:19:42.065Z,37.47
2022-11-03T01:22:11.428Z,37.93
2022-11-03T01:24:41.361Z,34.37
2022-11-03T01:27:10.654Z,37.70
2022-11-03T01:29:40.562Z,37.37
2022-11-03T01:32:09.482Z,38.80
2022-11-03T01:34:38.286Z,37.40
2022-11-03T01:37:06.891Z,38.33
2022-11-03T01:39:35.570Z,35.90
2022-11-03T01:42:04.263Z,39.70
2022-11-03T01:44:37.949Z,37.17
2022-11-03T01:47:28.635Z,36.50
2022-11-03T01:50:01.541Z,36.73
2022-11-03T01:52:34.085Z,38.20
2022-11-03T01:55:05.910Z,37.30
2022-11-03T01:57:38.455Z,38.20
2022-11-03T02:00:08.524Z,36.10
2022-11-03T02:02:44.829Z,37.27
2022-11-03T02:05:16.541Z,39.20
2022-11-03T02:07:51.066Z,35.77
2022-11-03T02:10:19.755Z,36.73
2022-11-03T02:12:49.390Z,35.20
2022-11-03T02:15:21.576Z,35.73
2022-11-03T02:17:53.499Z,37.37
2022-11-03T02:20:24.649Z,35.90
2022-11-03T02:23:16.614Z,37.77
2022-11-03T02:25:48.565Z,35.97
2022-11-03T02:28:19.799Z,36.50
2022-11-03T02:31:08.486Z,36.53
2022-11-03T02:33:48.850Z,37.47
2022-11-03T02:36:21.753Z,37.20
2022-11-03T02:38:57.543Z,35.90
2022-11-03T02:41:29.634Z,38.70
2022-11-03T02:43:58.848Z,37.43
2022-11-03T02:46:29.130Z,39.00
2022-11-03T02:48:57.761Z,38.33
2022-11-03T02:51:26.215Z,39.97
2022-11-03T02:54:03.857Z,39.27
2022-11-03T02:56:39.732Z,39.90
2022-11-03T02:59:12.516Z,40.00
2022-11-03T03:01:47.994Z,37.37
2022-11-03T03:04:21.626Z,38.37
2022-11-03T03:06:54.370Z,39.50
2022-11-03T03:09:26.317Z,39.87
2022-11-03T03:11:59.650Z,39.20
2022-11-03T03:14:32.891Z,39.80
2022-11-03T03:17:04.441Z,41.00
2022-11-03T03:19:45.245Z,43.70
2022-11-03T03:22:18.776Z,45.07
2022-11-03T03:24:52.786Z,43.20
2022-11-03T03:27:27.446Z,42.77
2022-11-03T03:30:00.318Z,42.17
2022-11-03T03:32:31.614Z,44.83
2022-11-03T03:35:01.714Z,43.00
2022-11-03T03:37:32.094Z,43.37
2022-11-03T03:40:06.169Z,45.30
2022-11-03T03:42:38.020Z,43.60
2022-11-03T03:45:09.628Z,42.23
2022-11-03T03:47:38.445Z,45.23
2022-11-03T03:50:07.917Z,44.93
2022-11-03T03:52:36.856Z,43.77
2022-11-03T03:55:08.975Z,44.17
2022-11-03T03:57:38.808Z,43.33
2022-11-03T04:00:09.540Z,42.67
2022-11-03T04:02:40.879Z,45.30
2022-11-03T04:05:09.450Z,41.50
2022-11-03T04:07:49.661Z,41.33
2022-11-03T04:10:19.063Z,42.60
2022-11-03T04:13:06.950Z,39.90
2022-11-03T04:15:52.828Z,40.10
2022-11-03T04:18:40.265Z,41.23
2022-11-03T04:21:30.884Z,40.97
2022-11-03T04:24:00.317Z,40.77
2022-11-03T04:26:29.675Z,42.07
2022-11-03T04:29:00.091Z,42.67
2022-11-03T04:31:30.243Z,43.20
2022-11-03T04:33:59.170Z,44.07
2022-11-03T04:36:27.513Z,41.93
2022-11-03T04:38:55.963Z,41.97
2022-11-03T04:41:26.739Z,43.80
2022-11-03T04:43:55.551Z,40.27
2022-11-03T04:46:28.447Z,38.50
2022-11-03T04:48:59.905Z,41.53
2022-11-03T04:51:30.835Z,42.23
2022-11-03T04:54:04.068Z,41.50
2022-11-03T04:56:33.765Z,42.90
2022-11-03T04:59:02.171Z,43.57
2022-11-03T05:01:32.254Z,43.07
2022-11-03T05:04:00.798Z,40.17
2022-11-03T05:06:30.949Z,41.70
2022-11-03T05:09:01.982Z,43.33
2022-11-03T05:11:33.324Z,42.60
2022-11-03T05:14:04.125Z,40.43
2022-11-03T05:16:34.991Z,39.70
2022-11-03T05:19:03.827Z,41.40
2022-11-03T05:21:32.380Z,40.43
2022-11-03T05:24:04.546Z,41.00
2022-11-03T05:26:36.220Z,42.07
2022-11-03T05:29:10.725Z,41.77
2022-11-03T05:31:43.612Z,41.90
2022-11-03T05:34:33.675Z,42.60
2022-11-03T05:37:20.641Z,39.97
2022-11-03T05:39:52.921Z,40.03
2022-11-03T05:42:30.977Z,40.23
2022-11-03T05:45:00.476Z,39.70
2022-11-03T05:47:34.791Z,38.60
2022-11-03T05:50:15.487Z,38.77
2022-11-03T05:52:46.146Z,41.37
2022-11-03T05:55:27.974Z,42.17
2022-11-03T05:57:58.704Z,39.83
2022-11-03T06:00:30.360Z,40.67
2022-11-03T06:03:00.915Z,44.00
2022-11-03T06:05:29.801Z,40.57
2022-11-03T06:08:01.857Z,42.07
2022-11-03T06:10:32.906Z,40.93
2022-11-03T06:13:05.951Z,40.80
2022-11-03T06:15:37.114Z,40.60
2022-11-03T06:18:16.109Z,42.07
2022-11-03T06:20:52.284Z,43.73
2022-11-03T06:23:21.879Z,40.50
2022-11-03T06:25:51.202Z,43.33
2022-11-03T06:28:22.614Z,42.13
2022-11-03T06:30:52.168Z,45.30
2022-11-03T06:33:26.882Z,43.70
2022-11-03T06:35:57.859Z,46.20
2022-11-03T06:38:29.698Z,43.57
2022-11-03T06:40:59.310Z,42.97
2022-11-03T06:43:40.827Z,43.17
2022-11-03T06:46:15.378Z,43.27
2022-11-03T06:48:46.252Z,46.03
2022-11-03T06:51:19.790Z,47.60
2022-11-03T06:53:49.097Z,44.90
2022-11-03T06:56:21.269Z,42.53
2022-11-03T06:58:51.080Z,44.77
2022-11-03T07:01:23.236Z,45.57
2022-11-03T07:03:57.809Z,46.40
2022-11-03T07:06:32.484Z,43.87
2022-11-03T07:09:02.615Z,45.47
2022-11-03T07:11:33.055Z,45.70
2022-11-03T07:14:11.425Z,45.33
2022-11-03T07:16:44.862Z,44.13
2022-11-03T07:19:19.807Z,44.93
2022-11-03T07:21:50.255Z,46.33
2022-11-03T07:24:23.270Z,45.40
2022-11-03T07:26:57.819Z,46.43
2022-11-03T07:29:29.985Z,48.37
2022-11-03T07:32:00.607Z,48.43
2022-11-03T07:34:34.546Z,47.53
2022-11-03T07:37:03.114Z,50.20
2022-11-03T07:39:37.111Z,50.40
2022-11-03T07:42:14.870Z,48.07
2022-11-03T07:44:43.214Z,50.80
2022-11-03T07:47:14.999Z,49.40
2022-11-03T07:49:45.104Z,52.10
2022-11-03T07:52:17.431Z,50.77
2022-11-03T07:54:45.904Z,53.27
2022-11-03T07:57:20.230Z,50.87
2022-11-03T07:59:50.467Z,50.43
2022-11-03T08:02:30.223Z,52.30
2022-11-03T08:05:00.179Z,52.20
2022-11-03T08:07:29.424Z,52.90
2022-11-03T08:09:57.892Z,53.83
2022-11-03T08:12:26.372Z,52.90
2022-11-03T08:14:55.015Z,54.07
2022-11-03T08:17:23.461Z,51.00
2022-11-03T08:19:51.866Z,52.07
2022-11-03T08:22:23.194Z,51.23
2022-11-03T08:24:51.632Z,54.77
2022-11-03T08:27:20.675Z,54.20
2022-11-03T08:29:49.183Z,52.00
2022-11-03T08:32:17.690Z,57.00
2022-11-03T08:34:46.146Z,56.30
2022-11-03T08:37:14.590Z,77.60
2022-11-03T08:39:44.214Z,71.70
2022-11-03T08:42:12.578Z,71.30
2022-11-03T08:44:40.977Z,74.33
2022-11-03T08:47:09.406Z,67.63
2022-11-03T08:49:38.085Z,78.50
2022-11-03T08:52:06.704Z,79.17
2022-11-03T08:54:35.049Z,75.87
2022-11-03T08:57:04.862Z,75.80
2022-11-03T08:59:33.832Z,78.70
2022-11-03T09:02:02.369Z,74.90
2022-11-03T09:04:30.830Z,76.83
2022-11-03T09:06:59.318Z,82.30
2022-11-03T09:12:17.452Z,81.70
2022-11-03T09:14:45.784Z,86.30
2022-11-03T09:17:14.251Z,81.87
2022-11-03T09:19:42.598Z,84.60
2022-11-03T09:22:10.952Z,83.60
2022-11-03T09:24:39.226Z,75.80
2022-11-03T09:27:07.574Z,76.03
2022-11-03T09:30:06.570Z,77.67
2022-11-03T09:32:26.398Z,76.93
2022-11-03T09:34:54.817Z,76.30
2022-11-03T09:37:23.997Z,80.63
2022-11-03T09:39:52.381Z,77.60
2022-11-03T09:42:21.021Z,72.40
2022-11-03T09:44:51.978Z,72.13
2022-11-03T09:47:25.024Z,72.47
2022-11-03T09:49:53.651Z,75.93
2022-11-03T09:52:24.216Z,69.67
2022-11-03T09:54:55.671Z,71.40
2022-11-03T09:57:26.377Z,66.10
2022-11-03T09:59:56.767Z,64.83
2022-11-03T10:02:28.519Z,64.73
2022-11-03T10:05:00.186Z,65.30
2022-11-03T10:07:31.142Z,60.50
2022-11-03T10:10:01.194Z,60.43
2022-11-03T10:12:33.462Z,61.90
2022-11-03T10:15:03.234Z,56.60
2022-11-03T10:17:32.349Z,60.10
2022-11-03T10:20:01.895Z,62.60
2022-11-03T10:22:30.251Z,60.70
2022-11-03T10:25:35.943Z,63.73
2022-11-03T10:28:16.863Z,58.97
2022-11-03T10:31:10.752Z,57.13
2022-11-03T10:33:41.765Z,56.77
2022-11-03T10:36:25.372Z,59.37
2022-11-03T10:38:54.081Z,59.43
2022-11-03T10:41:23.980Z,56.20
2022-11-03T10:44:08.117Z,55.77
2022-11-03T10:46:50.777Z,58.10
2022-11-03T10:49:21.309Z,58.20
2022-11-03T10:51:52.219Z,54.97
2022-11-03T10:54:23.401Z,58.20
2022-11-03T10:56:52.494Z,56.20
2022-11-03T10:59:23.379Z,57.17
2022-11-03T11:01:53.331Z,58.23
2022-11-03T11:04:22.358Z,55.07
2022-11-03T11:06:51.384Z,55.20
2022-11-03T11:09:25.573Z,54.33
2022-11-03T11:12:02.429Z,55.87
2022-11-03T11:14:39.787Z,55.23
2022-11-03T11:17:45.319Z,54.20
2022-11-03T11:20:40.251Z,54.00
2022-11-03T11:23:49.033Z,54.30
2022-11-03T11:26:32.308Z,54.70
2022-11-03T11:29:44.004Z,52.57
2022-11-03T11:32:52.227Z,50.80
2022-11-03T11:35:59.441Z,53.87
2022-11-03T11:39:07.123Z,50.33
2022-11-03T11:42:14.617Z,53.87
2022-11-03T11:45:02.841Z,49.73
2022-11-03T11:47:46.304Z,50.53
2022-11-03T11:50:31.937Z,50.77
2022-11-03T11:53:04.154Z,49.37
2022-11-03T11:55:46.921Z,50.10
2022-11-03T11:58:31.803Z,51.07
2022-11-03T12:01:02.279Z,49.43
2022-11-03T12:03:34.932Z,47.70
2022-11-03T12:06:03.757Z,49.73
2022-11-03T12:08:32.837Z,48.33
2022-11-03T12:11:04.150Z,46.47
2022-11-03T12:13:48.461Z,49.03
2022-11-03T12:16:30.281Z,48.77
2022-11-03T12:18:59.038Z,48.60
2022-11-03T12:21:47.369Z,46.07
2022-11-03T12:24:49.141Z,48.73
2022-11-03T12:27:36.725Z,49.37
2022-11-03T12:30:12.648Z,47.17
2022-11-03T12:32:41.099Z,49.20
2022-11-03T12:35:11.235Z,48.23
2022-11-03T12:37:39.716Z,47.87
2022-11-03T12:40:09.214Z,47.80
2022-11-03T12:42:37.582Z,49.13
2022-11-03T12:45:08.863Z,48.87
2022-11-03T12:47:37.195Z,48.43
2022-11-03T12:50:06.095Z,49.47
2022-11-03T12:52:34.441Z,47.03
2022-11-03T12:55:02.918Z,50.00
2022-11-03T12:57:31.334Z,49.40
2022-11-03T12:59:59.682Z,49.03
2022-11-03T13:02:29.441Z,49.50
2022-11-03T13:04:57.865Z,46.87
2022-11-03T13:07:31.824Z,46.50
2022-11-03T13:10:03.134Z,46.87
2022-11-03T13:12:35.245Z,48.53
2022-11-03T13:15:05.837Z,48.10
2022-11-03T13:17:59.152Z,47.50
2022-11-03T13:20:24.643Z,50.53
2022-11-03T13:22:53.030Z,47.47
2022-11-03T13:25:24.355Z,47.20
2022-11-03T13:27:53.897Z,46.97
2022-11-03T13:30:22.602Z,45.87
2022-11-03T13:32:52.867Z,44.87
2022-11-03T13:35:21.614Z,47.73
2022-11-03T13:37:49.957Z,45.30
2022-11-03T13:40:50.447Z,47.40
2022-11-03T13:43:07.585Z,47.13
2022-11-03T13:45:36.224Z,48.07
2022-11-03T13:50:54.580Z,46.60
2022-11-03T13:56:17.216Z,47.57
2022-11-03T14:01:37.583Z,45.40
2022-11-03T14:06:56.012Z,46.80
2022-11-03T14:09:24.995Z,45.63
2022-11-03T14:12:10.526Z,48.53
2022-11-03T14:14:38.950Z,46.97
2022-11-03T14:17:07.359Z,49.27
2022-11-03T14:19:43.086Z,45.30
2022-11-03T14:22:14.519Z,46.50
2022-11-03T14:24:42.963Z,51.80
2022-11-03T14:27:11.406Z,45.63
2022-11-03T14:29:39.754Z,47.70
2022-11-03T14:32:08.152Z,47.13
2022-11-03T14:34:38.555Z,47.70
2022-11-03T14:37:08.910Z,46.67
2022-11-03T14:39:37.654Z,47.50
2022-11-03T14:42:05.364Z,49.67
2022-11-03T14:44:34.882Z,48.87
2022-11-03T14:47:05.123Z,49.30
2022-11-03T14:49:34.728Z,52.00
2022-11-03T14:52:07.367Z,49.00
2022-11-03T14:54:36.700Z,48.10
2022-11-03T14:57:05.999Z,50.17
2022-11-03T14:59:35.815Z,49.27
2022-11-03T15:02:05.106Z,48.40
2022-11-03T15:04:33.446Z,52.63
2022-11-03T15:07:01.911Z,51.07
2022-11-03T15:09:31.687Z,50.33
2022-11-03T15:12:00.018Z,48.07
2022-11-03T15:14:29.823Z,51.30
2022-11-03T15:16:58.250Z,53.03
2022-11-03T15:19:26.558Z,50.27
2022-11-03T15:21:54.855Z,54.67
2022-11-03T15:27:13.075Z,52.00
2022-11-03T15:29:41.455Z,50.00
2022-11-03T15:32:09.818Z,49.43
2022-11-03T15:34:38.403Z,52.43
2022-11-03T15:37:06.853Z,52.27
2022-11-03T15:39:35.278Z,50.47
2022-11-03T15:42:03.725Z,50.70
2022-11-03T15:44:33.353Z,49.20
2022-11-03T15:47:01.729Z,49.40
2022-11-03T15:49:30.054Z,50.97
2022-11-03T15:51:58.391Z,73.63
2022-11-03T15:54:26.913Z,77.70
2022-11-03T15:56:55.307Z,57.33
2022-11-03T15:59:23.647Z,60.00
2022-11-03T16:02:03.468Z,54.87
2022-11-03T16:04:42.003Z,51.90
2022-11-03T16:07:10.507Z,50.47
2022-11-03T16:09:39.011Z,53.47
2022-11-03T16:12:07.926Z,52.93
2022-11-03T16:14:36.390Z,52.20
2022-11-03T16:17:06.985Z,51.80
2022-11-03T16:19:35.349Z,49.67
2022-11-03T16:22:03.795Z,50.93
2022-11-03T16:24:35.203Z,50.50
2022-11-03T16:27:04.839Z,50.33
2022-11-03T16:29:33.394Z,48.57
2022-11-03T16:32:01.809Z,48.23
2022-11-03T16:34:31.599Z,52.53
2022-11-03T16:37:00.785Z,52.60
2022-11-03T16:39:30.052Z,50.07
2022-11-03T16:41:58.389Z,48.13
2022-11-03T16:44:27.628Z,52.00
2022-11-03T16:46:56.426Z,61.87
2022-11-03T16:49:24.780Z,64.87
2022-11-03T16:51:54.598Z,53.27
2022-11-03T16:54:22.957Z,51.60
2022-11-03T16:56:54.596Z,49.57
2022-11-03T16:59:25.611Z,48.93
2022-11-03T17:01:54.502Z,48.00
2022-11-03T17:04:22.985Z,47.20
2022-11-03T17:06:51.473Z,49.37
2022-11-03T17:09:21.451Z,48.90
2022-11-03T17:11:49.903Z,46.70
2022-11-03T17:14:18.301Z,48.07
2022-11-03T17:16:48.392Z,47.30
2022-11-03T17:19:16.983Z,50.03
2022-11-03T17:21:47.276Z,51.30
2022-11-03T17:24:15.827Z,48.80
2022-11-03T17:26:53.026Z,49.53
2022-11-03T17:29:24.857Z,48.67
2022-11-03T17:31:53.201Z,48.53
2022-11-03T17:34:25.140Z,50.73
2022-11-03T17:36:55.382Z,51.67
2022-11-03T17:39:29.319Z,50.37
2022-11-03T17:42:14.751Z,49.07
2022-11-03T17:44:43.406Z,50.70
2022-11-03T17:47:11.781Z,50.97
2022-11-03T17:49:40.642Z,49.80
2022-11-03T17:52:15.904Z,50.67
2022-11-03T17:54:44.798Z,50.20
2022-11-03T17:57:17.959Z,49.70
2022-11-03T17:59:50.953Z,49.50
2022-11-03T18:02:23.111Z,50.27
2022-11-03T18:04:54.284Z,53.30
2022-11-03T18:07:25.193Z,52.00
2022-11-03T18:09:54.211Z,56.00
2022-11-03T18:12:45.266Z,56.47
2022-11-03T18:15:17.666Z,53.40
2022-11-03T18:17:46.634Z,58.50
2022-11-03T18:20:17.379Z,55.67
2022-11-03T18:22:46.575Z,57.30
2022-11-03T18:25:16.132Z,53.57
2022-11-03T18:27:45.976Z,59.67
2022-11-03T18:30:16.874Z,60.17
2022-11-03T18:32:46.554Z,66.00
2022-11-03T18:35:18.578Z,65.80
2022-11-03T18:37:47.077Z,67.43
2022-11-03T18:40:16.565Z,58.10
2022-11-03T18:42:47.587Z,62.20
2022-11-03T18:45:17.859Z,61.17
2022-11-03T18:47:46.541Z,59.73
2022-11-03T18:50:16.144Z,61.50
2022-11-03T18:52:47.618Z,59.63
2022-11-03T18:55:17.738Z,60.10
2022-11-03T18:57:47.603Z,59.50
2022-11-03T19:00:19.859Z,60.40
2022-11-03T19:02:49.022Z,57.90
2022-11-03T19:05:18.315Z,60.43
2022-11-03T19:07:49.410Z,58.80
2022-11-03T19:10:21.908Z,56.70
2022-11-03T19:12:52.133Z,57.13
2022-11-03T19:15:23.021Z,57.93
2022-11-03T19:17:55.596Z,53.43
2022-11-03T19:20:25.550Z,56.90
2022-11-03T19:22:53.959Z,57.13
2022-11-03T19:25:22.371Z,53.83
2022-11-03T19:27:52.116Z,54.00
2022-11-03T19:30:20.937Z,51.23
2022-11-03T19:32:52.302Z,51.57
2022-11-03T19:35:23.434Z,54.17
2022-11-03T19:37:59.725Z,52.03
2022-11-03T19:40:28.161Z,54.80
2022-11-03T19:42:57.724Z,50.20
2022-11-03T19:45:28.470Z,48.80
2022-11-03T19:50:47.764Z,48.47
2022-11-03T19:53:22.192Z,41.07
2022-11-03T19:55:50.977Z,41.70
2022-11-03T19:58:22.337Z,35.47
2022-11-03T20:00:51.740Z,36.77
2022-11-03T20:03:22.140Z,36.17
2022-11-03T20:05:53.443Z,31.30
2022-11-03T20:08:25.067Z,27.33
2022-11-03T20:10:54.006Z,29.37
2022-11-03T20:13:26.288Z,30.77
2022-11-03T20:16:00.725Z,29.10
2022-11-03T20:18:29.935Z,33.00
2022-11-03T20:20:58.959Z,32.00
2022-11-03T20:23:30.240Z,33.10
2022-11-03T20:25:58.972Z,32.73
2022-11-03T20:28:31.072Z,32.27
2022-11-03T20:31:01.306Z,33.83
2022-11-03T20:33:30.994Z,31.37
2022-11-03T20:36:00.219Z,31.93
2022-11-03T20:38:30.003Z,32.73
2022-11-03T20:41:00.014Z,33.60
2022-11-03T20:43:33.128Z,31.60
2022-11-03T20:46:02.202Z,33.67
2022-11-03T20:48:31.254Z,34.40
2022-11-03T20:50:59.695Z,34.33
2022-11-03T20:53:28.214Z,33.83
2022-11-03T20:55:56.592Z,33.03
2022-11-03T20:58:24.976Z,33.40
2022-11-03T21:00:55.031Z,42.00
2022-11-03T21:03:57.650Z,40.70
2022-11-03T21:06:18.763Z,43.00
2022-11-03T21:08:48.311Z,46.70
2022-11-03T21:11:24.305Z,45.00
2022-11-03T21:13:53.195Z,48.70
2022-11-03T21:16:40.645Z,47.03
2022-11-03T21:19:37.414Z,45.50
2022-11-03T21:25:03.634Z,44.27
2022-11-03T21:27:32.056Z,47.30
2022-11-03T21:30:00.729Z,45.00
2022-11-03T21:32:30.430Z,42.17
2022-11-03T21:34:58.855Z,38.10
2022-11-03T21:37:27.258Z,40.97
2022-11-03T21:39:55.661Z,41.23
2022-11-03T21:42:41.748Z,36.87
2022-11-03T21:45:10.878Z,35.43
2022-11-03T21:48:00.695Z,29.20
2022-11-03T21:50:28.048Z,26.93
2022-11-03T21:52:57.569Z,22.77
2022-11-03T21:55:26.292Z,21.70
2022-11-03T21:57:54.581Z,18.70
2022-11-03T22:00:23.192Z,14.33
2022-11-03T22:02:53.083Z,12.93
2022-11-03T22:05:21.585Z,14.40
2022-11-03T22:07:50.037Z,12.77
2022-11-03T22:10:18.445Z,10.77
2022-11-03T22:12:47.093Z,11.30
2022-11-03T22:15:32.314Z,13.80
2022-11-03T22:18:03.464Z,18.47
2022-11-03T22:20:49.214Z,19.23
2022-11-03T22:23:35.207Z,21.00
2022-11-03T22:26:20.837Z,31.80
2022-11-03T22:29:09.574Z,46.20
2022-11-03T22:31:43.146Z,45.07
2022-11-03T22:34:29.998Z,47.90
2022-11-03T22:36:58.379Z,48.60
2022-11-03T22:39:43.858Z,49.50
2022-11-03T22:42:30.770Z,49.70
2022-11-03T22:45:16.705Z,49.90
2022-11-03T22:47:45.217Z,51.87
2022-11-03T22:50:15.098Z,53.10
2022-11-03T22:52:43.568Z,51.17
2022-11-03T22:55:10.892Z,51.87
2022-11-03T22:57:39.303Z,54.00
2022-11-03T23:00:08.627Z,52.60
2022-11-03T23:02:37.013Z,52.87
2022-11-03T23:05:06.101Z,51.27
2022-11-03T23:07:41.248Z,51.20
2022-11-03T23:10:10.762Z,53.60
2022-11-03T23:12:39.099Z,54.03
2022-11-03T23:15:26.076Z,55.37
2022-11-03T23:18:11.938Z,55.10
2022-11-03T23:20:57.746Z,55.10
2022-11-03T23:23:44.969Z,55.97
2022-11-03T23:26:13.546Z,57.90
2022-11-03T23:28:41.992Z,55.80
2022-11-03T23:31:10.601Z,56.60
2022-11-03T23:33:39.381Z,55.53
2022-11-03T23:36:10.068Z,56.13
2022-11-03T23:38:40.935Z,57.10
2022-11-03T23:41:10.483Z,57.00
2022-11-03T23:43:39.428Z,54.63
2022-11-03T23:46:25.413Z,56.37
2022-11-03T23:48:54.527Z,56.00
2022-11-03T23:51:24.415Z,58.07
2022-11-03T23:53:55.078Z,55.30
2022-11-03T23:56:43.235Z,52.60
2022-11-03T23:59:13.156Z,48.50
